Mirage, Colorado
Current Conditions -  °F | °C
As of 9:10 AM on Monday 24 Nov 2014 (Local Time) from KRCV Reporting Station
Scattered Clouds Scattered Clouds  
Wind Chill: -8°   Ceiling: Unl
Heat Index: -4°   Visibility: 10mi
Dew Point: -18°   Wind: 5mph
Humidity: 36%   Direction: 270°W
Pressure: 30.05"   Gusts: NA
Location:  37.9777°N, 105.779°W
Report Text: KRCV 241610Z AUTO 27004KT 10SM SCT070 SCT120 M04/M17 A3005 RMK AO2 T10441175
Loading
Personal Weather Stations






























Interactive Weather Map New forecast layout! Learn more

10-Day Weather Forecast

Advertisements
Track Severe Weather on mobile